Race profile

Virgin London- elite women
London ENG
22 Apr 2012
Road
Marathon
Record quality course
Single gender race
Women: -23.89 sec (-0.56 sec/km)
Women: 917
Total: 27
Men: 0
Women: 27
$499,000
London

Results (women)

Finished Time Flags Given name Surname Alternate name Citizenship Birth date Prize money Actions
1 2:18:37 Mary Keitany Chepkosgei KEN 18 Jan 1982 $130,000
2 2:19:50 Edna Kiplagat Ngeringwony KEN 15 Nov 1979 $105,000
3 2:20:14 Priscilla Cheptoo KEN 24 Jun 1984 $72,500
4 2:20:57 Florence Chebet Kiplagat KEN 27 Feb 1987 $65,000
5 2:23:12 Lucy Kabuu Wangui KEN 24 Mar 1984 $25,000
6 2:24:04 Aberu Kebede Shewaye ETH 12 Sep 1986 $17,500
7 2:24:53 Irina Mikitenko GER 23 Aug 1972 $15,000
8 2:24:59 Jessica Augusto POR 08 Nov 1981 $14,000
9 2:25:59 Atseda Baysa Tesema ETH 16 Apr 1987 $8,000
10 2:27:04 Jelena Prokopcuka Celnova LAT 21 Sep 1976 $3,000
11 2:27:44 Claire Hallissey ENG 17 Mar 1983 $10,500
12 2:28:05 Korene Jelila Yal ETH 18 Jan 1987 $1,000
13 2:28:10 Freya Murray Ross SCO 20 Sep 1983 $8,000
14 2:29:57 Isabella Andersson Amoro SWE 12 Nov 1980
15 2:31:37 Louise Damen ENG 12 Oct 1982 $7,000
16 2:32:34 Constantina Dita Tomescu ROM 23 Jan 1970
17 2:33:41 Irvette vanZyl vanBlerk RSA 05 Jul 1987
18 2:33:41 Sonia Samuels Thomas ENG 15 May 1979 $5,000
19 2:33:44 Amy Whitehead Waterlow ENG 29 Jul 1978 $5,000
20 2:34:11 Helen Decker Davies ENG 11 Sep 1979 $4,000
21 2:34:56 Jessica Petersson Draskau DEN 08 Sep 1977
22 2:35:46 Alyson Dixon ENG 24 Sep 1978 $2,500
23 2:37:41 Susan Partridge SCO 04 Jan 1980 $1,000
24 2:40:08 Elizabeth Yelling Talbot ENG 05 Dec 1974
25 2:40:08 Michelle Cope Ross ENG 31 Jan 1972
DNF DNF Ejagayou Dibaba Keneni ETH 21 Mar 1982
DNF DNF Nadia Ejjafini ITA 08 Nov 1980
DNF DNF Inga Abitova RUS 06 Mar 1982
DNF DNF Peninah Arusei Jerop KEN 23 Feb 1979
DNF DNF Joyce Chepkirui KEN 20 Aug 1988
DNF DNF René Kalmer RSA 03 Nov 1980
DQ DQ Mariya Konovalova RUS 14 Aug 1974
DQ DQ Yuliya Ruban UKR 06 Oct 1983